Jena Marie C. — WDD4969 — position and weather

sailwx.info

Track history (hours):
 
Tides and Currents Weather Stations Pressure Air Temp Water Temp Dewpoint Dewpoint Depression Visibility Wind Speed Wind Dir Waves Ship Positions

Jena Marie C.

Owner: Scott C. Marine Towing, LLC, Marrero, LA. More information available from US FCC via Universal Licensing System and Coast Guard Vessel Documentation Center.

Last reported at 2014-Oct-02 03:33 UTC. Time now 2014-Oct-02 04:26 UTC.
Position N 29°59' W 090°24'.

Length 19 m; draft 2.5 m.

Type: Towing. MMSI: 367151880.

Date/timePositionNaut miles runAvg speedWind from/ knotsBaromVisibWave heightAir tempDewpointWater temp
2014-Oct-02 03:33N 29°59' W 090°24'0 0.0
2014-Oct-02 02:33N 29°59' W 090°24'0 0.0
2014-Oct-02 01:33N 29°59' W 090°24'0 0.1
2014-Oct-02 00:33N 29°59' W 090°24'2 1.6
2014-Oct-01 23:33N 29°60' W 090°26'1 0.1
2014-Oct-01 12:33N 29°59' W 090°25'4 3.6
2014-Oct-01 11:22N 29°56' W 090°21'2 0.7
2014-Oct-01 09:04N 29°56' W 090°20'3 6.6
2014-Oct-01 08:33N 29°57' W 090°23'3 2.8
2014-Oct-01 07:33N 29°59' W 090°25'0 0.2
2014-Oct-01 06:33N 29°60' W 090°25'0 0.3
2014-Oct-01 05:33N 29°59' W 090°25'4 3.6
2014-Oct-01 04:30N 29°57' W 090°22'1 1.3
2014-Oct-01 03:27N 29°56' W 090°21'3 3.0
2014-Oct-01 02:23N 29°57' W 090°18'16 0.5
2014-Sep-29 20:33N 30°03' W 090°35'1 0.7
2014-Sep-29 19:33N 30°03' W 090°35'0 0.0
2014-Sep-29 15:33N 30°03' W 090°35'0 0.0
2014-Sep-29 14:32N 30°03' W 090°35'0 0.0
2014-Sep-29 13:33N 30°03' W 090°35'0 0.0
2014-Sep-29 12:33N 30°03' W 090°35'0 0.0
2014-Sep-29 11:33N 30°03' W 090°35'0 0.0
2014-Sep-29 10:33N 30°03' W 090°35'0 0.0
2014-Sep-29 09:33N 30°03' W 090°35'0 0.0
2014-Sep-29 08:33N 30°03' W 090°35'0 0.0
2014-Sep-29 07:33N 30°03' W 090°35'0 0.0
2014-Sep-29 06:33N 30°03' W 090°35'0 0.0
2014-Sep-29 05:34N 30°03' W 090°35'0 0.0
2014-Sep-29 04:33N 30°03' W 090°35'4 3.8
2014-Sep-29 03:33N 30°03' W 090°31'4 4.2
2014-Sep-29 02:33N 29°60' W 090°28'5 4.7
2014-Sep-29 01:32N 29°57' W 090°23'  
2014-Sep-22 12:15N 29°34' W 090°29'4 6.1
2014-Sep-22 11:33N 29°34' W 090°34'6 5.9
2014-Sep-22 10:33N 29°36' W 090°40'4 3.5
2014-Sep-22 09:31N 29°34' W 090°43'4 3.1
2014-Sep-22 08:19N 29°32' W 090°47'4 5.8
2014-Sep-22 07:33N 29°32' W 090°52'6 6.3
2014-Sep-22 06:33N 29°36' W 090°58'6 5.7
2014-Sep-22 05:33N 29°38' W 091°04'6 5.5
2014-Sep-22 04:33N 29°41' W 091°09'  
Track history (hours):
 
Tides and Currents Weather Stations Pressure Air Temp Water Temp Dewpoint Dewpoint Depression Visibility Wind Speed Wind Dir Waves Ship Positions

Jena Marie C.

Owner: Scott C. Marine Towing, LLC, Marrero, LA. More information available from US FCC via Universal Licensing System and Coast Guard Vessel Documentation Center.

Last reported at 2014-Oct-02 03:33 UTC. Time now 2014-Oct-02 04:26 UTC.
Position N 29°59' W 090°24'.

Length 19 m; draft 2.5 m.

Type: Towing. MMSI: 367151880.

Date/timePositionNaut miles runAvg speedWind from/ knotsBaromVisibWave heightAir tempDewpointWater temp
2014-Oct-02 03:33N 29°59' W 090°24'0 0.0
2014-Oct-02 02:33N 29°59' W 090°24'0 0.0
2014-Oct-02 01:33N 29°59' W 090°24'0 0.1
2014-Oct-02 00:33N 29°59' W 090°24'2 1.6
2014-Oct-01 23:33N 29°60' W 090°26'1 0.1
2014-Oct-01 12:33N 29°59' W 090°25'4 3.6
2014-Oct-01 11:22N 29°56' W 090°21'2 0.7
2014-Oct-01 09:04N 29°56' W 090°20'3 6.6
2014-Oct-01 08:33N 29°57' W 090°23'3 2.8
2014-Oct-01 07:33N 29°59' W 090°25'0 0.2
2014-Oct-01 06:33N 29°60' W 090°25'0 0.3
2014-Oct-01 05:33N 29°59' W 090°25'4 3.6
2014-Oct-01 04:30N 29°57' W 090°22'1 1.3
2014-Oct-01 03:27N 29°56' W 090°21'3 3.0
2014-Oct-01 02:23N 29°57' W 090°18'16 0.5
2014-Sep-29 20:33N 30°03' W 090°35'1 0.7
2014-Sep-29 19:33N 30°03' W 090°35'0 0.0
2014-Sep-29 15:33N 30°03' W 090°35'0 0.0
2014-Sep-29 14:32N 30°03' W 090°35'0 0.0
2014-Sep-29 13:33N 30°03' W 090°35'0 0.0
2014-Sep-29 12:33N 30°03' W 090°35'0 0.0
2014-Sep-29 11:33N 30°03' W 090°35'0 0.0
2014-Sep-29 10:33N 30°03' W 090°35'0 0.0
2014-Sep-29 09:33N 30°03' W 090°35'0 0.0
2014-Sep-29 08:33N 30°03' W 090°35'0 0.0
2014-Sep-29 07:33N 30°03' W 090°35'0 0.0
2014-Sep-29 06:33N 30°03' W 090°35'0 0.0
2014-Sep-29 05:34N 30°03' W 090°35'0 0.0
2014-Sep-29 04:33N 30°03' W 090°35'4 3.8
2014-Sep-29 03:33N 30°03' W 090°31'4 4.2
2014-Sep-29 02:33N 29°60' W 090°28'5 4.7
2014-Sep-29 01:32N 29°57' W 090°23'  
2014-Sep-22 12:15N 29°34' W 090°29'4 6.1
2014-Sep-22 11:33N 29°34' W 090°34'6 5.9
2014-Sep-22 10:33N 29°36' W 090°40'4 3.5
2014-Sep-22 09:31N 29°34' W 090°43'4 3.1
2014-Sep-22 08:19N 29°32' W 090°47'4 5.8
2014-Sep-22 07:33N 29°32' W 090°52'6 6.3
2014-Sep-22 06:33N 29°36' W 090°58'6 5.7
2014-Sep-22 05:33N 29°38' W 091°04'6 5.5
2014-Sep-22 04:33N 29°41' W 091°09'  

Dump ship's entire track history